createdAt,value
2022-12-12T00:02:44.048Z,-1.16
2022-12-12T00:07:46.011Z,-1.17
2022-12-12T00:12:48.193Z,-1.18
2022-12-12T00:17:50.226Z,-1.20
2022-12-12T00:22:52.084Z,-1.22
2022-12-12T00:27:54.030Z,-1.23
2022-12-12T00:32:55.871Z,-1.20
2022-12-12T00:37:57.686Z,-1.20
2022-12-12T00:42:59.432Z,-1.17
2022-12-12T00:48:01.185Z,-1.16
2022-12-12T00:53:03.217Z,-1.14
2022-12-12T00:58:05.232Z,-1.13
2022-12-12T01:03:07.441Z,-1.16
2022-12-12T01:08:09.406Z,-1.15
2022-12-12T01:13:11.331Z,-1.14
2022-12-12T01:18:14.262Z,-1.15
2022-12-12T01:23:16.161Z,-1.16
2022-12-12T01:28:17.961Z,-1.18
2022-12-12T01:33:19.897Z,-1.20
2022-12-12T01:38:22.143Z,-1.19
2022-12-12T01:43:25.571Z,-1.18
2022-12-12T01:48:45.455Z,-1.19
2022-12-12T01:53:50.185Z,-1.20
2022-12-12T01:58:54.992Z,-1.20
2022-12-12T02:03:59.264Z,-1.18
2022-12-12T02:09:04.342Z,-1.20
2022-12-12T02:14:06.225Z,-1.18
2022-12-12T02:19:44.160Z,-1.19
2022-12-12T02:25:12.564Z,-1.21
2022-12-12T02:30:38.126Z,-1.21
2022-12-12T02:36:00.146Z,-1.21
2022-12-12T02:41:25.200Z,-1.22
2022-12-12T02:46:41.573Z,-1.23
2022-12-12T02:51:46.133Z,-1.23
2022-12-12T02:56:50.669Z,-1.25
2022-12-12T03:01:58.476Z,-1.26
2022-12-12T03:07:35.924Z,-1.27
2022-12-12T03:12:49.083Z,-1.26
2022-12-12T03:18:05.718Z,-1.26
2022-12-12T03:23:14.193Z,-1.23
2022-12-12T03:28:31.070Z,-1.22
2022-12-12T03:33:55.188Z,-1.24
2022-12-12T03:39:02.045Z,-1.25
2022-12-12T03:44:41.742Z,-1.23
2022-12-12T03:49:50.341Z,-1.24
2022-12-12T03:55:21.580Z,-1.24
2022-12-12T04:00:23.538Z,-1.22
2022-12-12T04:06:01.184Z,-1.21
2022-12-12T04:11:39.308Z,-1.20
2022-12-12T04:16:46.519Z,-1.19
2022-12-12T04:22:18.138Z,-1.19
2022-12-12T04:27:30.811Z,-1.18
2022-12-12T04:32:37.731Z,-1.20
2022-12-12T04:37:47.465Z,-1.19
2022-12-12T04:43:13.897Z,-1.16
2022-12-12T04:48:22.063Z,-1.15
2022-12-12T04:53:33.404Z,-1.17
2022-12-12T04:58:37.790Z,-1.13
2022-12-12T05:03:49.382Z,-1.11
2022-12-12T05:08:54.824Z,-1.12
2022-12-12T05:13:56.661Z,-1.11
2022-12-12T05:19:01.894Z,-1.11
2022-12-12T05:24:03.986Z,-1.11
2022-12-12T05:29:07.688Z,-1.11
2022-12-12T05:34:10.329Z,-1.12
2022-12-12T05:39:12.091Z,-1.13
2022-12-12T05:44:13.981Z,-1.13
2022-12-12T05:49:15.825Z,-1.12
2022-12-12T05:54:17.642Z,-1.12
2022-12-12T05:59:19.491Z,-1.13
2022-12-12T06:04:21.336Z,-1.13
2022-12-12T06:09:23.493Z,-1.12
2022-12-12T06:14:26.411Z,-1.13
2022-12-12T06:19:28.231Z,-1.17
2022-12-12T06:24:30.225Z,-1.19
2022-12-12T06:29:32.554Z,-1.17
2022-12-12T06:34:34.461Z,-1.17
2022-12-12T06:39:38.005Z,-1.18
2022-12-12T06:44:39.809Z,-1.18
2022-12-12T06:49:41.649Z,-1.21
2022-12-12T06:54:43.485Z,-1.23
2022-12-12T06:59:45.323Z,-1.25
2022-12-12T07:04:47.175Z,-1.26
2022-12-12T07:09:49.109Z,-1.24
2022-12-12T07:14:51.029Z,-1.23
2022-12-12T07:19:53.315Z,-1.21
2022-12-12T07:24:55.405Z,-1.21
2022-12-12T07:29:57.416Z,-1.21
2022-12-12T07:34:59.271Z,-1.22
2022-12-12T07:40:01.182Z,-1.21
2022-12-12T07:45:03.063Z,-1.19
2022-12-12T07:50:05.199Z,-1.17
2022-12-12T07:55:07.587Z,-1.17
2022-12-12T08:00:13.579Z,-1.15
2022-12-12T08:05:16.528Z,-1.14
2022-12-12T08:10:18.529Z,-1.14
2022-12-12T08:15:20.781Z,-1.11
2022-12-12T08:20:23.095Z,-1.08
2022-12-12T08:25:24.927Z,-1.00
2022-12-12T08:30:28.043Z,-0.98
2022-12-12T08:35:31.785Z,-0.94
2022-12-12T08:40:37.297Z,-0.90
2022-12-12T08:45:39.475Z,-0.88
2022-12-12T08:50:41.892Z,-0.83
2022-12-12T08:55:43.657Z,-0.79
2022-12-12T09:00:45.504Z,-0.77
2022-12-12T09:05:47.642Z,-0.71
2022-12-12T09:10:50.511Z,-0.67
2022-12-12T09:15:52.987Z,-0.61
2022-12-12T09:20:56.843Z,-0.60
2022-12-12T09:25:59.134Z,-0.58
2022-12-12T09:31:03.386Z,-0.50
2022-12-12T09:36:08.145Z,-0.38
2022-12-12T09:41:09.902Z,-0.29
2022-12-12T09:46:32.646Z,-0.27
2022-12-12T09:51:36.070Z,-0.31
2022-12-12T09:56:57.462Z,-0.36
2022-12-12T10:02:26.259Z,-0.37
2022-12-12T10:07:51.672Z,-0.32
2022-12-12T10:12:58.547Z,-0.25
2022-12-12T10:18:05.358Z,-0.12
2022-12-12T10:23:40.050Z,0.03
2022-12-12T10:28:42.075Z,0.08
2022-12-12T10:34:16.260Z,0.08
2022-12-12T10:39:32.992Z,0.05
2022-12-12T10:45:19.603Z,0.04
2022-12-12T10:50:37.670Z,0.08
2022-12-12T10:55:45.303Z,0.10
2022-12-12T11:00:49.605Z,0.06
2022-12-12T11:05:51.486Z,0.08
2022-12-12T11:11:24.829Z,0.07
2022-12-12T11:16:40.788Z,0.03
2022-12-12T11:21:43.282Z,-0.03
2022-12-12T11:27:04.466Z,-0.02
2022-12-12T11:32:14.565Z,-0.01
2022-12-12T11:37:19.196Z,0.02
2022-12-12T11:42:26.687Z,0.02
2022-12-12T11:47:41.017Z,-0.02
2022-12-12T11:52:43.016Z,0.03
2022-12-12T11:57:47.687Z,0.04
2022-12-12T12:03:11.054Z,0.03
2022-12-12T12:08:28.938Z,0.08
2022-12-12T12:13:45.823Z,0.10
2022-12-12T12:19:16.275Z,0.12
2022-12-12T12:24:52.105Z,0.12
2022-12-12T12:30:13.705Z,0.12
2022-12-12T12:35:29.399Z,0.15
2022-12-12T12:40:43.321Z,0.17
2022-12-12T12:45:57.750Z,0.15
2022-12-12T12:51:04.725Z,0.14
2022-12-12T12:56:22.286Z,0.10
2022-12-12T13:01:42.485Z,0.10
2022-12-12T13:07:25.679Z,0.11
2022-12-12T13:12:44.501Z,0.11
2022-12-12T13:17:48.995Z,0.10
2022-12-12T13:23:21.777Z,0.09
2022-12-12T13:28:35.957Z,0.06
2022-12-12T13:33:44.557Z,0.04
2022-12-12T13:38:53.583Z,0.05
2022-12-12T13:43:57.950Z,0.02
2022-12-12T13:49:16.887Z,0.02
2022-12-12T13:54:38.598Z,0.04
2022-12-12T13:59:58.372Z,0.06
2022-12-12T14:05:35.624Z,0.09
2022-12-12T14:10:43.651Z,0.06
2022-12-12T14:15:48.358Z,0.04
2022-12-12T14:20:56.266Z,0.03
2022-12-12T14:26:00.006Z,-0.02
2022-12-12T14:31:17.201Z,-0.06
2022-12-12T14:36:37.663Z,-0.10
2022-12-12T14:41:42.998Z,-0.16
2022-12-12T14:46:44.781Z,-0.21
2022-12-12T14:51:50.677Z,-0.26
2022-12-12T14:56:59.178Z,-0.29
2022-12-12T15:02:15.984Z,-0.33
2022-12-12T15:07:28.083Z,-0.34
2022-12-12T15:12:34.969Z,-0.37
2022-12-12T15:17:46.104Z,-0.41
2022-12-12T15:22:57.392Z,-0.48
2022-12-12T15:27:59.564Z,-0.55
2022-12-12T15:33:03.413Z,-0.64
2022-12-12T15:38:13.157Z,-0.74
2022-12-12T15:43:24.863Z,-0.81
2022-12-12T15:48:27.605Z,-0.89
2022-12-12T15:53:35.579Z,-0.96
2022-12-12T15:58:43.686Z,-1.02
2022-12-12T16:04:01.752Z,-1.04
2022-12-12T16:09:18.777Z,-1.01
2022-12-12T16:14:42.450Z,-1.02
2022-12-12T16:19:57.703Z,-1.05
2022-12-12T16:25:23.394Z,-1.04
2022-12-12T16:35:28.690Z,-1.08
2022-12-12T16:40:30.717Z,-1.09
2022-12-12T16:45:32.535Z,-1.09
2022-12-12T16:50:35.426Z,-1.07
2022-12-12T16:55:39.686Z,-1.07
2022-12-12T17:00:41.595Z,-1.09
2022-12-12T17:05:45.022Z,-1.12
2022-12-12T17:10:48.488Z,-1.13
2022-12-12T17:15:51.906Z,-1.14
2022-12-12T17:20:53.806Z,-1.11
2022-12-12T17:26:02.449Z,-1.07
2022-12-12T17:31:09.667Z,-1.08
2022-12-12T17:36:13.189Z,-1.06
2022-12-12T17:41:15.043Z,-1.11
2022-12-12T17:46:17.856Z,-1.09
2022-12-12T17:51:23.972Z,-1.10
2022-12-12T17:56:26.796Z,-1.10
2022-12-12T18:01:33.621Z,-1.12
2022-12-12T18:06:36.135Z,-1.13
2022-12-12T18:11:38.970Z,-1.14
2022-12-12T18:16:44.973Z,-1.16
2022-12-12T18:22:02.843Z,-1.16
2022-12-12T18:27:04.803Z,-1.13
2022-12-12T18:32:06.788Z,-1.13
2022-12-12T18:37:08.847Z,-1.11
2022-12-12T18:42:12.013Z,-1.14
2022-12-12T18:47:13.930Z,-1.17
2022-12-12T18:52:16.112Z,-1.18
2022-12-12T18:57:18.403Z,-1.16
2022-12-12T19:02:20.369Z,-1.17
2022-12-12T19:07:22.370Z,-1.14
2022-12-12T19:12:24.357Z,-1.09
2022-12-12T19:17:27.020Z,-1.06
2022-12-12T19:22:44.946Z,-1.06
2022-12-12T19:27:48.641Z,-1.09
2022-12-12T19:32:50.535Z,-1.12
2022-12-12T19:37:52.659Z,-1.14
2022-12-12T19:42:54.525Z,-1.12
2022-12-12T19:47:56.574Z,-1.12
2022-12-12T19:53:01.457Z,-1.12
2022-12-12T19:58:04.698Z,-1.11
2022-12-12T20:03:06.705Z,-1.11
2022-12-12T20:08:08.686Z,-1.10
2022-12-12T20:13:11.696Z,-1.11
2022-12-12T20:18:16.330Z,-1.12
2022-12-12T20:23:18.651Z,-1.12
2022-12-12T20:28:20.552Z,-1.14
2022-12-12T20:33:22.419Z,-1.14
2022-12-12T20:38:25.310Z,-1.15
2022-12-12T20:43:28.602Z,-1.17
2022-12-12T20:48:30.434Z,-1.19
2022-12-12T20:53:36.388Z,-1.21
2022-12-12T20:58:39.674Z,-1.22
2022-12-12T21:03:43.115Z,-1.24
2022-12-12T21:08:46.238Z,-1.20
2022-12-12T21:13:50.815Z,-1.20
2022-12-12T21:18:55.047Z,-1.21
2022-12-12T21:23:58.023Z,-1.20
2022-12-12T21:29:02.008Z,-1.17
2022-12-12T21:34:06.147Z,-1.16
2022-12-12T21:39:08.646Z,-1.16
2022-12-12T21:44:10.706Z,-1.21
2022-12-12T21:49:28.260Z,-1.24
2022-12-12T21:54:30.763Z,-1.22
2022-12-12T21:59:32.673Z,-1.19
2022-12-12T22:04:34.515Z,-1.18
2022-12-12T22:09:36.378Z,-1.17
2022-12-12T22:14:38.239Z,-1.18
2022-12-12T22:19:40.048Z,-1.17
2022-12-12T22:24:41.837Z,-1.18
2022-12-12T22:29:43.689Z,-1.19
2022-12-12T22:34:45.545Z,-1.22
2022-12-12T22:39:47.443Z,-1.23
2022-12-12T22:44:49.205Z,-1.20
2022-12-12T22:49:52.664Z,-1.22
2022-12-12T22:54:54.933Z,-1.22
2022-12-12T22:59:56.920Z,-1.22
2022-12-12T23:04:58.854Z,-1.21
2022-12-12T23:10:02.446Z,-1.22
2022-12-12T23:15:05.031Z,-1.23
2022-12-12T23:20:07.998Z,-1.23
2022-12-12T23:25:09.746Z,-1.28
2022-12-12T23:30:11.875Z,-1.30
2022-12-12T23:35:14.192Z,-1.33
2022-12-12T23:40:16.363Z,-1.37
2022-12-12T23:45:18.366Z,-1.40
2022-12-12T23:50:20.226Z,-1.44
2022-12-12T23:55:22.107Z,-1.48
